sensor_id;sensor_type;location;lat;lon;timestamp;temperature;humidity
51739;DHT22;37815;52.692;6.226;2024-01-25T00:03:37;9.80;99.90
51739;DHT22;37815;52.692;6.226;2024-01-25T00:08:38;9.80;99.90
51739;DHT22;37815;52.692;6.226;2024-01-25T00:13:38;9.70;99.90
51739;DHT22;37815;52.692;6.226;2024-01-25T00:18:40;9.70;99.90
51739;DHT22;37815;52.692;6.226;2024-01-25T00:23:40;9.70;99.90
51739;DHT22;37815;52.692;6.226;2024-01-25T00:28:41;9.70;99.90
51739;DHT22;37815;52.692;6.226;2024-01-25T00:33:41;9.70;99.90
51739;DHT22;37815;52.692;6.226;2024-01-25T00:38:42;9.70;99.90
51739;DHT22;37815;52.692;6.226;2024-01-25T00:43:43;9.70;99.90
51739;DHT22;37815;52.692;6.226;2024-01-25T00:48:44;9.70;99.90
51739;DHT22;37815;52.692;6.226;2024-01-25T00:53:45;9.70;99.90
51739;DHT22;37815;52.692;6.226;2024-01-25T00:58:46;9.60;99.90
51739;DHT22;37815;52.692;6.226;2024-01-25T01:03:46;9.60;99.90
51739;DHT22;37815;52.692;6.226;2024-01-25T01:08:52;9.60;99.90
51739;DHT22;37815;52.692;6.226;2024-01-25T01:13:53;9.60;99.90
51739;DHT22;37815;52.692;6.226;2024-01-25T01:18:54;9.60;99.90
51739;DHT22;37815;52.692;6.226;2024-01-25T01:23:54;9.60;99.90
51739;DHT22;37815;52.692;6.226;2024-01-25T01:28:55;9.60;99.90
51739;DHT22;37815;52.692;6.226;2024-01-25T01:33:55;9.60;99.90
51739;DHT22;37815;52.692;6.226;2024-01-25T01:38:56;9.60;99.90
51739;DHT22;37815;52.692;6.226;2024-01-25T01:43:56;9.50;99.90
51739;DHT22;37815;52.692;6.226;2024-01-25T01:48:57;9.50;99.90
51739;DHT22;37815;52.692;6.226;2024-01-25T01:54:00;9.50;99.90
51739;DHT22;37815;52.692;6.226;2024-01-25T01:59:02;9.50;99.90
51739;DHT22;37815;52.692;6.226;2024-01-25T02:04:05;9.50;99.90
51739;DHT22;37815;52.692;6.226;2024-01-25T02:09:06;9.50;99.90
51739;DHT22;37815;52.692;6.226;2024-01-25T02:14:07;9.50;99.90
51739;DHT22;37815;52.692;6.226;2024-01-25T02:19:11;9.50;99.90
51739;DHT22;37815;52.692;6.226;2024-01-25T02:24:11;9.50;99.90
51739;DHT22;37815;52.692;6.226;2024-01-25T02:29:12;9.50;99.90
51739;DHT22;37815;52.692;6.226;2024-01-25T02:34:12;9.40;99.90
51739;DHT22;37815;52.692;6.226;2024-01-25T02:39:13;9.40;99.90
51739;DHT22;37815;52.692;6.226;2024-01-25T02:44:14;9.40;99.90
51739;DHT22;37815;52.692;6.226;2024-01-25T02:49:14;9.40;99.90
51739;DHT22;37815;52.692;6.226;2024-01-25T02:54:15;9.40;99.90
51739;DHT22;37815;52.692;6.226;2024-01-25T02:59:15;9.40;99.90
51739;DHT22;37815;52.692;6.226;2024-01-25T03:04:16;9.40;99.90
51739;DHT22;37815;52.692;6.226;2024-01-25T03:09:17;9.30;99.90
51739;DHT22;37815;52.692;6.226;2024-01-25T03:14:17;9.40;99.90
51739;DHT22;37815;52.692;6.226;2024-01-25T03:19:18;9.30;99.90
51739;DHT22;37815;52.692;6.226;2024-01-25T03:24:19;9.30;99.90
51739;DHT22;37815;52.692;6.226;2024-01-25T03:29:19;9.30;99.90
51739;DHT22;37815;52.692;6.226;2024-01-25T03:34:20;9.30;99.90
51739;DHT22;37815;52.692;6.226;2024-01-25T03:39:20;9.30;99.90
51739;DHT22;37815;52.692;6.226;2024-01-25T03:44:21;9.30;99.90
51739;DHT22;37815;52.692;6.226;2024-01-25T03:49:21;9.20;99.90
51739;DHT22;37815;52.692;6.226;2024-01-25T03:54:23;9.30;99.90
51739;DHT22;37815;52.692;6.226;2024-01-25T03:59:23;9.20;99.90
51739;DHT22;37815;52.692;6.226;2024-01-25T04:04:24;9.20;99.90
51739;DHT22;37815;52.692;6.226;2024-01-25T04:09:24;9.20;99.90
51739;DHT22;37815;52.692;6.226;2024-01-25T04:14:25;9.20;99.90
51739;DHT22;37815;52.692;6.226;2024-01-25T04:19:26;9.20;99.90
51739;DHT22;37815;52.692;6.226;2024-01-25T04:24:26;9.20;99.90
51739;DHT22;37815;52.692;6.226;2024-01-25T04:29:27;9.20;99.90
51739;DHT22;37815;52.692;6.226;2024-01-25T04:34:27;9.20;99.90
51739;DHT22;37815;52.692;6.226;2024-01-25T04:39:28;9.20;99.90
51739;DHT22;37815;52.692;6.226;2024-01-25T04:44:28;9.10;99.90
51739;DHT22;37815;52.692;6.226;2024-01-25T04:49:29;9.10;99.90
51739;DHT22;37815;52.692;6.226;2024-01-25T04:54:30;9.10;99.90
51739;DHT22;37815;52.692;6.226;2024-01-25T04:59:30;9.10;99.90
51739;DHT22;37815;52.692;6.226;2024-01-25T05:04:31;9.10;99.90
51739;DHT22;37815;52.692;6.226;2024-01-25T05:09:32;9.10;99.90
51739;DHT22;37815;52.692;6.226;2024-01-25T05:14:32;9.10;99.90
51739;DHT22;37815;52.692;6.226;2024-01-25T05:19:33;9.00;99.90
51739;DHT22;37815;52.692;6.226;2024-01-25T05:24:34;9.10;99.90
51739;DHT22;37815;52.692;6.226;2024-01-25T05:29:34;9.00;99.90
51739;DHT22;37815;52.692;6.226;2024-01-25T05:34:35;9.00;99.90
51739;DHT22;37815;52.692;6.226;2024-01-25T05:39:35;9.00;99.90
51739;DHT22;37815;52.692;6.226;2024-01-25T05:44:36;9.00;99.90
51739;DHT22;37815;52.692;6.226;2024-01-25T05:49:36;9.00;99.90
51739;DHT22;37815;52.692;6.226;2024-01-25T05:54:37;9.00;99.90
51739;DHT22;37815;52.692;6.226;2024-01-25T05:59:37;8.90;99.90
51739;DHT22;37815;52.692;6.226;2024-01-25T06:04:38;8.90;99.90
51739;DHT22;37815;52.692;6.226;2024-01-25T06:09:39;8.90;99.90
51739;DHT22;37815;52.692;6.226;2024-01-25T06:14:39;8.90;99.90
51739;DHT22;37815;52.692;6.226;2024-01-25T06:19:40;8.90;99.90
51739;DHT22;37815;52.692;6.226;2024-01-25T06:24:40;8.50;99.90
51739;DHT22;37815;52.692;6.226;2024-01-25T06:29:41;8.80;99.90
51739;DHT22;37815;52.692;6.226;2024-01-25T06:34:42;8.80;99.90
51739;DHT22;37815;52.692;6.226;2024-01-25T06:39:42;8.80;99.90
51739;DHT22;37815;52.692;6.226;2024-01-25T06:44:44;8.80;99.90
51739;DHT22;37815;52.692;6.226;2024-01-25T06:49:44;8.80;99.90
51739;DHT22;37815;52.692;6.226;2024-01-25T06:54:48;8.80;99.90
51739;DHT22;37815;52.692;6.226;2024-01-25T06:59:48;8.80;99.90
51739;DHT22;37815;52.692;6.226;2024-01-25T07:04:49;8.70;99.90
51739;DHT22;37815;52.692;6.226;2024-01-25T07:09:53;8.70;99.90
51739;DHT22;37815;52.692;6.226;2024-01-25T07:14:53;8.70;99.90
51739;DHT22;37815;52.692;6.226;2024-01-25T07:19:54;8.70;99.90
51739;DHT22;37815;52.692;6.226;2024-01-25T07:24:54;8.70;99.90
51739;DHT22;37815;52.692;6.226;2024-01-25T07:29:55;8.70;99.90
51739;DHT22;37815;52.692;6.226;2024-01-25T07:34:55;8.70;99.90
51739;DHT22;37815;52.692;6.226;2024-01-25T07:39:56;8.70;99.90
51739;DHT22;37815;52.692;6.226;2024-01-25T07:44:57;8.70;99.90
51739;DHT22;37815;52.692;6.226;2024-01-25T07:49:58;8.70;99.90
51739;DHT22;37815;52.692;6.226;2024-01-25T07:54:58;8.70;99.90
51739;DHT22;37815;52.692;6.226;2024-01-25T07:59:59;8.70;99.90
51739;DHT22;37815;52.692;6.226;2024-01-25T08:05:00;8.70;99.90
51739;DHT22;37815;52.692;6.226;2024-01-25T08:10:00;8.70;99.90
51739;DHT22;37815;52.692;6.226;2024-01-25T08:15:01;8.70;99.90
51739;DHT22;37815;52.692;6.226;2024-01-25T08:20:02;8.70;99.90
51739;DHT22;37815;52.692;6.226;2024-01-25T08:25:03;8.60;99.90
51739;DHT22;37815;52.692;6.226;2024-01-25T08:30:05;8.70;99.90
51739;DHT22;37815;52.692;6.226;2024-01-25T08:35:06;8.60;99.90
51739;DHT22;37815;52.692;6.226;2024-01-25T08:40:07;8.60;99.90
51739;DHT22;37815;52.692;6.226;2024-01-25T08:45:10;8.60;99.90
51739;DHT22;37815;52.692;6.226;2024-01-25T08:50:11;8.60;99.90
51739;DHT22;37815;52.692;6.226;2024-01-25T08:55:12;8.60;99.90
51739;DHT22;37815;52.692;6.226;2024-01-25T09:00:12;8.60;99.90
51739;DHT22;37815;52.692;6.226;2024-01-25T09:05:13;8.60;99.90
51739;DHT22;37815;52.692;6.226;2024-01-25T09:10:14;8.60;99.90
51739;DHT22;37815;52.692;6.226;2024-01-25T09:15:15;8.60;99.90
51739;DHT22;37815;52.692;6.226;2024-01-25T09:20:16;8.60;99.90
51739;DHT22;37815;52.692;6.226;2024-01-25T09:25:16;8.60;99.90
51739;DHT22;37815;52.692;6.226;2024-01-25T09:30:17;8.60;99.90
51739;DHT22;37815;52.692;6.226;2024-01-25T09:35:18;8.60;99.90
51739;DHT22;37815;52.692;6.226;2024-01-25T09:40:19;8.70;99.90
51739;DHT22;37815;52.692;6.226;2024-01-25T09:45:24;8.70;99.90
51739;DHT22;37815;52.692;6.226;2024-01-25T09:50:24;8.80;99.90
51739;DHT22;37815;52.692;6.226;2024-01-25T09:55:25;9.10;99.90
51739;DHT22;37815;52.692;6.226;2024-01-25T10:00:26;9.10;99.90
51739;DHT22;37815;52.692;6.226;2024-01-25T10:05:27;9.00;99.90
51739;DHT22;37815;52.692;6.226;2024-01-25T10:10:32;8.90;99.90
51739;DHT22;37815;52.692;6.226;2024-01-25T10:15:35;8.90;99.90
51739;DHT22;37815;52.692;6.226;2024-01-25T10:20:35;8.80;99.90
51739;DHT22;37815;52.692;6.226;2024-01-25T10:25:36;8.80;99.90
51739;DHT22;37815;52.692;6.226;2024-01-25T10:30:37;8.80;99.90
51739;DHT22;37815;52.692;6.226;2024-01-25T10:35:40;8.90;99.90
51739;DHT22;37815;52.692;6.226;2024-01-25T10:40:42;8.90;99.90
51739;DHT22;37815;52.692;6.226;2024-01-25T10:45:43;8.90;99.90
51739;DHT22;37815;52.692;6.226;2024-01-25T10:50:45;8.90;99.90
51739;DHT22;37815;52.692;6.226;2024-01-25T10:55:47;8.90;99.90
51739;DHT22;37815;52.692;6.226;2024-01-25T11:00:52;8.90;99.90
51739;DHT22;37815;52.692;6.226;2024-01-25T11:06:06;9.00;99.90
51739;DHT22;37815;52.692;6.226;2024-01-25T11:11:10;9.00;99.90
51739;DHT22;37815;52.692;6.226;2024-01-25T11:16:30;9.00;99.90
51739;DHT22;37815;52.692;6.226;2024-01-25T11:21:45;9.00;99.90
51739;DHT22;37815;52.692;6.226;2024-01-25T11:26:46;9.10;99.90
51739;DHT22;37815;52.692;6.226;2024-01-25T11:31:49;9.10;99.90
51739;DHT22;37815;52.692;6.226;2024-01-25T11:36:50;9.40;99.90
51739;DHT22;37815;52.692;6.226;2024-01-25T11:41:51;9.20;99.90
51739;DHT22;37815;52.692;6.226;2024-01-25T11:46:57;9.20;99.90
51739;DHT22;37815;52.692;6.226;2024-01-25T11:51:58;9.50;99.90
51739;DHT22;37815;52.692;6.226;2024-01-25T11:56:59;9.20;99.90
51739;DHT22;37815;52.692;6.226;2024-01-25T12:02:01;9.20;99.90
51739;DHT22;37815;52.692;6.226;2024-01-25T12:07:03;9.20;99.90
51739;DHT22;37815;52.692;6.226;2024-01-25T12:12:04;9.20;99.90
51739;DHT22;37815;52.692;6.226;2024-01-25T12:17:05;9.20;99.90
51739;DHT22;37815;52.692;6.226;2024-01-25T12:22:06;9.30;99.90
51739;DHT22;37815;52.692;6.226;2024-01-25T12:27:06;9.30;99.90
51739;DHT22;37815;52.692;6.226;2024-01-25T12:32:07;9.30;99.90
51739;DHT22;37815;52.692;6.226;2024-01-25T12:37:07;9.30;99.90
51739;DHT22;37815;52.692;6.226;2024-01-25T12:42:08;9.30;99.90
51739;DHT22;37815;52.692;6.226;2024-01-25T12:47:09;9.30;99.90
51739;DHT22;37815;52.692;6.226;2024-01-25T12:52:11;9.40;99.90
51739;DHT22;37815;52.692;6.226;2024-01-25T12:57:12;9.50;99.90
51739;DHT22;37815;52.692;6.226;2024-01-25T13:02:13;9.50;99.90
51739;DHT22;37815;52.692;6.226;2024-01-25T13:07:13;9.50;99.90
51739;DHT22;37815;52.692;6.226;2024-01-25T13:12:15;9.50;99.90
51739;DHT22;37815;52.692;6.226;2024-01-25T13:17:16;9.50;99.90
51739;DHT22;37815;52.692;6.226;2024-01-25T13:22:16;9.40;99.90
51739;DHT22;37815;52.692;6.226;2024-01-25T13:27:22;9.50;99.90
51739;DHT22;37815;52.692;6.226;2024-01-25T13:32:22;9.40;99.90
51739;DHT22;37815;52.692;6.226;2024-01-25T13:37:24;9.40;99.90
51739;DHT22;37815;52.692;6.226;2024-01-25T13:42:24;9.40;99.90
51739;DHT22;37815;52.692;6.226;2024-01-25T13:47:25;9.40;99.90
51739;DHT22;37815;52.692;6.226;2024-01-25T13:52:26;9.40;99.90
51739;DHT22;37815;52.692;6.226;2024-01-25T13:57:26;9.40;99.90
51739;DHT22;37815;52.692;6.226;2024-01-25T14:02:27;9.40;99.90
51739;DHT22;37815;52.692;6.226;2024-01-25T14:07:27;9.40;99.90
51739;DHT22;37815;52.692;6.226;2024-01-25T14:12:28;9.40;99.90
51739;DHT22;37815;52.692;6.226;2024-01-25T14:17:28;9.40;99.90
51739;DHT22;37815;52.692;6.226;2024-01-25T14:22:29;9.40;99.90
51739;DHT22;37815;52.692;6.226;2024-01-25T14:27:30;9.40;99.90
51739;DHT22;37815;52.692;6.226;2024-01-25T14:32:31;9.40;99.90
51739;DHT22;37815;52.692;6.226;2024-01-25T14:37:31;9.30;99.90
51739;DHT22;37815;52.692;6.226;2024-01-25T14:42:32;9.30;99.90
51739;DHT22;37815;52.692;6.226;2024-01-25T14:47:33;9.40;99.90
51739;DHT22;37815;52.692;6.226;2024-01-25T14:52:33;9.30;99.90
51739;DHT22;37815;52.692;6.226;2024-01-25T14:57:34;9.30;99.90
51739;DHT22;37815;52.692;6.226;2024-01-25T15:02:35;9.40;99.90
51739;DHT22;37815;52.692;6.226;2024-01-25T15:07:36;9.40;99.90
51739;DHT22;37815;52.692;6.226;2024-01-25T15:12:36;9.40;99.90
51739;DHT22;37815;52.692;6.226;2024-01-25T15:17:37;9.40;99.90
51739;DHT22;37815;52.692;6.226;2024-01-25T15:22:37;9.40;99.90
51739;DHT22;37815;52.692;6.226;2024-01-25T15:27:39;9.40;99.90
51739;DHT22;37815;52.692;6.226;2024-01-25T15:32:40;9.40;99.90
51739;DHT22;37815;52.692;6.226;2024-01-25T15:37:43;9.40;99.90
51739;DHT22;37815;52.692;6.226;2024-01-25T15:42:43;9.40;99.90
51739;DHT22;37815;52.692;6.226;2024-01-25T15:47:44;9.30;99.90
51739;DHT22;37815;52.692;6.226;2024-01-25T15:52:45;9.60;99.90
51739;DHT22;37815;52.692;6.226;2024-01-25T15:57:46;10.00;99.90
51739;DHT22;37815;52.692;6.226;2024-01-25T16:02:47;9.90;99.90
51739;DHT22;37815;52.692;6.226;2024-01-25T16:07:48;9.80;99.90
51739;DHT22;37815;52.692;6.226;2024-01-25T16:12:49;9.80;99.90
51739;DHT22;37815;52.692;6.226;2024-01-25T16:17:50;9.60;99.90
51739;DHT22;37815;52.692;6.226;2024-01-25T16:22:50;9.60;99.90
51739;DHT22;37815;52.692;6.226;2024-01-25T16:27:51;9.60;99.90
51739;DHT22;37815;52.692;6.226;2024-01-25T16:32:52;9.50;99.90
51739;DHT22;37815;52.692;6.226;2024-01-25T16:37:52;9.40;99.90
51739;DHT22;37815;52.692;6.226;2024-01-25T16:42:53;9.40;99.90
51739;DHT22;37815;52.692;6.226;2024-01-25T16:47:55;9.40;99.90
51739;DHT22;37815;52.692;6.226;2024-01-25T16:52:56;9.40;99.90
51739;DHT22;37815;52.692;6.226;2024-01-25T16:57:57;9.40;99.90
51739;DHT22;37815;52.692;6.226;2024-01-25T17:02:57;9.40;99.90
51739;DHT22;37815;52.692;6.226;2024-01-25T17:07:58;9.40;99.90
51739;DHT22;37815;52.692;6.226;2024-01-25T17:12:59;9.40;99.90
51739;DHT22;37815;52.692;6.226;2024-01-25T17:18:00;9.40;99.90
51739;DHT22;37815;52.692;6.226;2024-01-25T17:23:00;9.40;99.90
51739;DHT22;37815;52.692;6.226;2024-01-25T17:28:01;9.40;99.90
51739;DHT22;37815;52.692;6.226;2024-01-25T17:33:02;9.40;99.90
51739;DHT22;37815;52.692;6.226;2024-01-25T17:38:03;9.40;99.90
51739;DHT22;37815;52.692;6.226;2024-01-25T17:43:03;9.40;99.90
51739;DHT22;37815;52.692;6.226;2024-01-25T17:48:04;9.40;99.90
51739;DHT22;37815;52.692;6.226;2024-01-25T17:53:05;9.40;99.90
51739;DHT22;37815;52.692;6.226;2024-01-25T17:58:05;9.30;99.90
51739;DHT22;37815;52.692;6.226;2024-01-25T18:03:06;9.30;99.90
51739;DHT22;37815;52.692;6.226;2024-01-25T18:08:06;9.30;99.90
51739;DHT22;37815;52.692;6.226;2024-01-25T18:13:07;9.30;99.90
51739;DHT22;37815;52.692;6.226;2024-01-25T18:18:07;9.30;99.90
51739;DHT22;37815;52.692;6.226;2024-01-25T18:23:09;9.30;99.90
51739;DHT22;37815;52.692;6.226;2024-01-25T18:28:10;9.30;99.90
51739;DHT22;37815;52.692;6.226;2024-01-25T18:33:11;9.20;99.90
51739;DHT22;37815;52.692;6.226;2024-01-25T18:38:12;9.30;99.90
51739;DHT22;37815;52.692;6.226;2024-01-25T18:43:13;9.30;99.90
51739;DHT22;37815;52.692;6.226;2024-01-25T18:48:13;9.30;99.90
51739;DHT22;37815;52.692;6.226;2024-01-25T18:53:14;9.30;99.90
51739;DHT22;37815;52.692;6.226;2024-01-25T18:58:15;9.30;99.90
51739;DHT22;37815;52.692;6.226;2024-01-25T19:03:15;9.30;99.90
51739;DHT22;37815;52.692;6.226;2024-01-25T19:08:16;9.20;99.90
51739;DHT22;37815;52.692;6.226;2024-01-25T19:13:17;9.20;99.90
51739;DHT22;37815;52.692;6.226;2024-01-25T19:18:18;9.30;99.90
51739;DHT22;37815;52.692;6.226;2024-01-25T19:23:19;9.20;99.90
51739;DHT22;37815;52.692;6.226;2024-01-25T19:28:19;9.30;99.90
51739;DHT22;37815;52.692;6.226;2024-01-25T19:33:20;9.20;99.90
51739;DHT22;37815;52.692;6.226;2024-01-25T19:38:21;9.20;99.90
51739;DHT22;37815;52.692;6.226;2024-01-25T19:43:21;9.20;99.90
51739;DHT22;37815;52.692;6.226;2024-01-25T19:48:22;9.20;99.90
51739;DHT22;37815;52.692;6.226;2024-01-25T19:53:23;9.20;99.90
51739;DHT22;37815;52.692;6.226;2024-01-25T19:58:24;9.30;99.90
51739;DHT22;37815;52.692;6.226;2024-01-25T20:03:26;9.30;99.90
51739;DHT22;37815;52.692;6.226;2024-01-25T20:08:27;9.30;99.90
51739;DHT22;37815;52.692;6.226;2024-01-25T20:13:28;9.30;99.90
51739;DHT22;37815;52.692;6.226;2024-01-25T20:18:29;9.30;99.90
51739;DHT22;37815;52.692;6.226;2024-01-25T20:23:29;9.30;99.90
51739;DHT22;37815;52.692;6.226;2024-01-25T20:28:30;9.30;99.90
51739;DHT22;37815;52.692;6.226;2024-01-25T20:33:30;9.30;99.90
51739;DHT22;37815;52.692;6.226;2024-01-25T20:38:31;9.30;99.90
51739;DHT22;37815;52.692;6.226;2024-01-25T20:43:31;9.30;99.90
51739;DHT22;37815;52.692;6.226;2024-01-25T20:48:32;9.30;99.90
51739;DHT22;37815;52.692;6.226;2024-01-25T20:53:35;9.20;99.90
51739;DHT22;37815;52.692;6.226;2024-01-25T20:58:38;9.20;99.90
51739;DHT22;37815;52.692;6.226;2024-01-25T21:03:39;9.30;99.90
51739;DHT22;37815;52.692;6.226;2024-01-25T21:08:40;9.30;99.90
51739;DHT22;37815;52.692;6.226;2024-01-25T21:13:41;9.30;99.90
51739;DHT22;37815;52.692;6.226;2024-01-25T21:18:46;9.30;99.90
51739;DHT22;37815;52.692;6.226;2024-01-25T21:23:47;9.30;99.90
51739;DHT22;37815;52.692;6.226;2024-01-25T21:28:47;9.30;99.90
51739;DHT22;37815;52.692;6.226;2024-01-25T21:33:48;9.30;99.90
51739;DHT22;37815;52.692;6.226;2024-01-25T21:38:49;9.30;99.90
51739;DHT22;37815;52.692;6.226;2024-01-25T21:43:50;9.30;99.90
51739;DHT22;37815;52.692;6.226;2024-01-25T21:48:51;9.30;99.90
51739;DHT22;37815;52.692;6.226;2024-01-25T21:53:51;9.30;99.90
51739;DHT22;37815;52.692;6.226;2024-01-25T21:58:52;9.30;99.90
51739;DHT22;37815;52.692;6.226;2024-01-25T22:03:52;9.30;99.90
51739;DHT22;37815;52.692;6.226;2024-01-25T22:08:54;9.30;99.90
51739;DHT22;37815;52.692;6.226;2024-01-25T22:13:54;9.30;99.90
51739;DHT22;37815;52.692;6.226;2024-01-25T22:18:55;9.30;99.90
51739;DHT22;37815;52.692;6.226;2024-01-25T22:23:56;9.30;99.90
51739;DHT22;37815;52.692;6.226;2024-01-25T22:28:57;9.30;99.90
51739;DHT22;37815;52.692;6.226;2024-01-25T22:33:57;9.30;99.90
51739;DHT22;37815;52.692;6.226;2024-01-25T22:38:58;9.30;99.90
51739;DHT22;37815;52.692;6.226;2024-01-25T22:43:58;9.30;99.90
51739;DHT22;37815;52.692;6.226;2024-01-25T22:48:59;9.30;99.90
51739;DHT22;37815;52.692;6.226;2024-01-25T22:53:59;9.30;99.90
51739;DHT22;37815;52.692;6.226;2024-01-25T22:59:00;9.40;99.90
51739;DHT22;37815;52.692;6.226;2024-01-25T23:04:00;9.40;99.90
51739;DHT22;37815;52.692;6.226;2024-01-25T23:09:01;9.40;99.90
51739;DHT22;37815;52.692;6.226;2024-01-25T23:14:02;9.40;99.90
51739;DHT22;37815;52.692;6.226;2024-01-25T23:19:02;9.40;99.90
51739;DHT22;37815;52.692;6.226;2024-01-25T23:24:03;9.40;99.90
51739;DHT22;37815;52.692;6.226;2024-01-25T23:29:04;9.40;99.90
51739;DHT22;37815;52.692;6.226;2024-01-25T23:34:04;9.40;99.90
51739;DHT22;37815;52.692;6.226;2024-01-25T23:39:05;9.40;99.90
51739;DHT22;37815;52.692;6.226;2024-01-25T23:44:07;9.40;99.90
51739;DHT22;37815;52.692;6.226;2024-01-25T23:49:08;9.40;99.90
51739;DHT22;37815;52.692;6.226;2024-01-25T23:54:10;9.40;99.90
51739;DHT22;37815;52.692;6.226;2024-01-25T23:59:10;9.40;99.90
